Olib — 9AA6266 — position and weather

sailwx.info

Track history (hours):
 
Tides and Currents Weather Stations Pressure Air Temp Water Temp Dewpoint Dewpoint Depression Visibility Wind Speed Wind Dir Waves Ship Positions

Olib

Last reported at 2014-Sep-16 18:33 UTC. Time now 2014-Sep-17 15:40 UTC.
Position N 59°39' E 023°30'.

Length 247 m; draft 15 m.

Type: Tanker. MMSI: 238252000.

Date/timePositionNaut miles runAvg speedWind from/ knotsBaromVisibWave heightAir tempDewpointWater temp
2014-Sep-16 18:33N 59°39' E 023°30'9311.4
2014-Sep-16 10:23N 60°01' E 026°30'  
2014-Sep-14 02:33N 59°59' E 026°45'6111.3
2014-Sep-13 21:11N 59°46' E 024°47'711.3
2014-Sep-13 20:33N 59°44' E 024°34'2611.0
2014-Sep-13 18:10N 59°36' E 023°44'711.0
2014-Sep-13 17:33N 59°34' E 023°31'26510.5
2014-Sep-12 16:22N 56°08' E 018°19'106 9.7
2014-Sep-12 05:27N 55°35' E 015°20'910.5
2014-Sep-12 04:33N 55°30' E 015°06'1010.4
2014-Sep-12 03:33N 55°26' E 014°49'1010.2
2014-Sep-12 02:33N 55°20' E 014°35'1110.6
2014-Sep-12 01:33N 55°11' E 014°23'1110.6
2014-Sep-12 00:33N 55°03' E 014°11'1110.5
2014-Sep-11 23:33N 54°58' E 013°55'1110.9
2014-Sep-11 22:32N 54°55' E 013°37'1110.7
2014-Sep-11 21:33N 54°52' E 013°19'1310.7
2014-Sep-11 20:18N 54°48' E 012°58'811.0
2014-Sep-11 19:33N 54°45' E 012°44'1110.9
2014-Sep-11 18:32N 54°39' E 012°28'1010.2
2014-Sep-11 17:33N 54°32' E 012°16'9 8.9
2014-Sep-11 16:33N 54°25' E 012°06'1110.6
2014-Sep-11 15:33N 54°25' E 011°48'1111.1
2014-Sep-11 14:33N 54°29' E 011°30'1111.0
2014-Sep-11 13:33N 54°34' E 011°13'1311.4
2014-Sep-11 12:26N 54°41' E 010°54'117 9.7
2014-Sep-11 00:22N 56°36' E 011°31'911.0
2014-Sep-10 23:33N 56°42' E 011°44'9 9.1
2014-Sep-10 22:33N 56°50' E 011°49'1110.5
2014-Sep-10 21:33N 57°00' E 011°42'1010.4
2014-Sep-10 20:33N 57°10' E 011°36'1111.0
2014-Sep-10 19:33N 57°20' E 011°28'1110.9
2014-Sep-10 18:33N 57°30' E 011°19'1110.8
2014-Sep-10 17:33N 57°39' E 011°08'1211.8
2014-Sep-10 16:33N 57°51' E 011°08'1211.6
2014-Sep-10 15:33N 58°02' E 011°09'9 0.2
2014-Sep-08 22:23N 58°11' E 011°10'0 0.0
2014-Sep-08 17:17N 58°11' E 011°10'0 0.0
2014-Sep-08 16:32N 58°11' E 011°10'0 0.0
2014-Sep-08 15:10N 58°11' E 011°10'5 1.9
2014-Sep-08 12:23N 58°07' E 011°07'1011.4
2014-Sep-08 11:31N 57°57' E 010°59'1111.7
2014-Sep-08 10:33N 57°46' E 010°55'1010.3
2014-Sep-08 09:33N 57°38' E 011°05'1313.3
2014-Sep-08 08:33N 57°29' E 011°23'1312.9
2014-Sep-08 07:33N 57°17' E 011°33'1312.7
2014-Sep-08 06:30N 57°04' E 011°41'1111.8
2014-Sep-08 05:33N 56°54' E 011°48'1111.1
2014-Sep-08 04:33N 56°43' E 011°51'132 9.2
2014-Sep-07 14:15N 54°31' E 011°26'811.2
2014-Sep-07 13:33N 54°28' E 011°38'1111.3
2014-Sep-07 12:33N 54°26' E 011°57'10 9.8
2014-Sep-07 11:33N 54°30' E 012°13'8 8.3
2014-Sep-07 10:33N 54°37' E 012°19'8 7.3
2014-Sep-07 09:27N 54°42' E 012°31'6 6.6
2014-Sep-07 08:32N 54°45' E 012°40'5 4.4
2014-Sep-07 07:20N 54°48' E 012°48'6 8.1
2014-Sep-07 06:33N 54°50' E 012°58'1211.8
2014-Sep-07 05:33N 54°54' E 013°17'1212.1
2014-Sep-07 04:33N 54°58' E 013°37'1212.1
2014-Sep-07 03:33N 55°02' E 013°57'1211.7
2014-Sep-07 02:33N 55°10' E 014°12'1212.1
2014-Sep-07 01:33N 55°19' E 014°25'1211.8
2014-Sep-07 00:33N 55°28' E 014°40'1212.0
2014-Sep-06 23:33N 55°34' E 014°59'1212.1
2014-Sep-06 22:33N 55°38' E 015°18'1212.0
2014-Sep-06 21:33N 55°41' E 015°39'1212.0
2014-Sep-06 20:33N 55°44' E 015°60'1212.2
2014-Sep-06 19:33N 55°47' E 016°21'  
Track history (hours):
 
Tides and Currents Weather Stations Pressure Air Temp Water Temp Dewpoint Dewpoint Depression Visibility Wind Speed Wind Dir Waves Ship Positions

Olib

Last reported at 2014-Sep-16 18:33 UTC. Time now 2014-Sep-17 15:40 UTC.
Position N 59°39' E 023°30'.

Length 247 m; draft 15 m.

Type: Tanker. MMSI: 238252000.

Date/timePositionNaut miles runAvg speedWind from/ knotsBaromVisibWave heightAir tempDewpointWater temp
2014-Sep-16 18:33N 59°39' E 023°30'9311.4
2014-Sep-16 10:23N 60°01' E 026°30'  
2014-Sep-14 02:33N 59°59' E 026°45'6111.3
2014-Sep-13 21:11N 59°46' E 024°47'711.3
2014-Sep-13 20:33N 59°44' E 024°34'2611.0
2014-Sep-13 18:10N 59°36' E 023°44'711.0
2014-Sep-13 17:33N 59°34' E 023°31'26510.5
2014-Sep-12 16:22N 56°08' E 018°19'106 9.7
2014-Sep-12 05:27N 55°35' E 015°20'910.5
2014-Sep-12 04:33N 55°30' E 015°06'1010.4
2014-Sep-12 03:33N 55°26' E 014°49'1010.2
2014-Sep-12 02:33N 55°20' E 014°35'1110.6
2014-Sep-12 01:33N 55°11' E 014°23'1110.6
2014-Sep-12 00:33N 55°03' E 014°11'1110.5
2014-Sep-11 23:33N 54°58' E 013°55'1110.9
2014-Sep-11 22:32N 54°55' E 013°37'1110.7
2014-Sep-11 21:33N 54°52' E 013°19'1310.7
2014-Sep-11 20:18N 54°48' E 012°58'811.0
2014-Sep-11 19:33N 54°45' E 012°44'1110.9
2014-Sep-11 18:32N 54°39' E 012°28'1010.2
2014-Sep-11 17:33N 54°32' E 012°16'9 8.9
2014-Sep-11 16:33N 54°25' E 012°06'1110.6
2014-Sep-11 15:33N 54°25' E 011°48'1111.1
2014-Sep-11 14:33N 54°29' E 011°30'1111.0
2014-Sep-11 13:33N 54°34' E 011°13'1311.4
2014-Sep-11 12:26N 54°41' E 010°54'117 9.7
2014-Sep-11 00:22N 56°36' E 011°31'911.0
2014-Sep-10 23:33N 56°42' E 011°44'9 9.1
2014-Sep-10 22:33N 56°50' E 011°49'1110.5
2014-Sep-10 21:33N 57°00' E 011°42'1010.4
2014-Sep-10 20:33N 57°10' E 011°36'1111.0
2014-Sep-10 19:33N 57°20' E 011°28'1110.9
2014-Sep-10 18:33N 57°30' E 011°19'1110.8
2014-Sep-10 17:33N 57°39' E 011°08'1211.8
2014-Sep-10 16:33N 57°51' E 011°08'1211.6
2014-Sep-10 15:33N 58°02' E 011°09'9 0.2
2014-Sep-08 22:23N 58°11' E 011°10'0 0.0
2014-Sep-08 17:17N 58°11' E 011°10'0 0.0
2014-Sep-08 16:32N 58°11' E 011°10'0 0.0
2014-Sep-08 15:10N 58°11' E 011°10'5 1.9
2014-Sep-08 12:23N 58°07' E 011°07'1011.4
2014-Sep-08 11:31N 57°57' E 010°59'1111.7
2014-Sep-08 10:33N 57°46' E 010°55'1010.3
2014-Sep-08 09:33N 57°38' E 011°05'1313.3
2014-Sep-08 08:33N 57°29' E 011°23'1312.9
2014-Sep-08 07:33N 57°17' E 011°33'1312.7
2014-Sep-08 06:30N 57°04' E 011°41'1111.8
2014-Sep-08 05:33N 56°54' E 011°48'1111.1
2014-Sep-08 04:33N 56°43' E 011°51'132 9.2
2014-Sep-07 14:15N 54°31' E 011°26'811.2
2014-Sep-07 13:33N 54°28' E 011°38'1111.3
2014-Sep-07 12:33N 54°26' E 011°57'10 9.8
2014-Sep-07 11:33N 54°30' E 012°13'8 8.3
2014-Sep-07 10:33N 54°37' E 012°19'8 7.3
2014-Sep-07 09:27N 54°42' E 012°31'6 6.6
2014-Sep-07 08:32N 54°45' E 012°40'5 4.4
2014-Sep-07 07:20N 54°48' E 012°48'6 8.1
2014-Sep-07 06:33N 54°50' E 012°58'1211.8
2014-Sep-07 05:33N 54°54' E 013°17'1212.1
2014-Sep-07 04:33N 54°58' E 013°37'1212.1
2014-Sep-07 03:33N 55°02' E 013°57'1211.7
2014-Sep-07 02:33N 55°10' E 014°12'1212.1
2014-Sep-07 01:33N 55°19' E 014°25'1211.8
2014-Sep-07 00:33N 55°28' E 014°40'1212.0
2014-Sep-06 23:33N 55°34' E 014°59'1212.1
2014-Sep-06 22:33N 55°38' E 015°18'1212.0
2014-Sep-06 21:33N 55°41' E 015°39'1212.0
2014-Sep-06 20:33N 55°44' E 015°60'1212.2
2014-Sep-06 19:33N 55°47' E 016°21'  

Dump ship's entire track history